NSZ3858 EKBI-EGPH
Flight info
| Callsign | NSZ3858 |
|---|---|
| Flight time | 1h 18m |
| Altitude | 32000 |
| Route | BAMPI DCT EVAKI DCT TINAC DCT ITSUX DCT AGPED |
| Aircraft | A320/M-SDE3FGHIRWY/LB1 |
Departure
| Time | 2026-05-04 08:19 |
|---|---|
| Airport | Billund Airport (EKBI) |
Arrival
| Time | 2026-05-04 09:37 |
|---|---|
| Airport | Edinburgh Airport (EGPH) |
| Time | Latitude | Longitude | Altitude | Speed | Heading |
|---|---|---|---|---|---|
| 2026-05-04 08:02 | 55.74523 | 9.14413 | 216 ft | 0 kts | 357° |
| 2026-05-04 08:10 | 55.74479 | 9.14417 | 224 ft | 2 kts | 356° |
| 2026-05-04 08:11 | 55.74457 | 9.14418 | 219 ft | 4 kts | 12° |
| 2026-05-04 08:11 | 55.74436 | 9.14360 | 217 ft | 2 kts | 86° |
| 2026-05-04 08:11 | 55.74436 | 9.14358 | 217 ft | 0 kts | 86° |
| 2026-05-04 08:14 | 55.74436 | 9.14373 | 218 ft | 7 kts | 86° |
| 2026-05-04 08:14 | 55.74441 | 9.14533 | 218 ft | 15 kts | 86° |
| 2026-05-04 08:16 | 55.74215 | 9.15648 | 216 ft | 21 kts | 86° |
| 2026-05-04 08:16 | 55.74224 | 9.15914 | 216 ft | 22 kts | 87° |
| 2026-05-04 08:16 | 55.74232 | 9.16199 | 216 ft | 24 kts | 87° |
| 2026-05-04 08:17 | 55.74242 | 9.16506 | 216 ft | 26 kts | 86° |
| 2026-05-04 08:17 | 55.74252 | 9.16837 | 218 ft | 28 kts | 87° |
| 2026-05-04 08:17 | 55.74263 | 9.17191 | 216 ft | 30 kts | 87° |
| 2026-05-04 08:17 | 55.74275 | 9.17565 | 216 ft | 31 kts | 86° |
| 2026-05-04 08:19 | 55.74092 | 9.12363 | 1193 ft | 162 kts | 286° |
| 2026-05-04 08:19 | 55.74599 | 9.10589 | 1806 ft | 164 kts | 305° |
| 2026-05-04 08:20 | 55.75326 | 9.08935 | 2179 ft | 179 kts | 306° |
| 2026-05-04 08:20 | 55.76147 | 9.07063 | 2462 ft | 204 kts | 307° |
| 2026-05-04 08:20 | 55.77066 | 9.04946 | 2847 ft | 228 kts | 306° |
| 2026-05-04 08:20 | 55.78057 | 9.02637 | 3496 ft | 240 kts | 306° |
| 2026-05-04 08:21 | 55.79041 | 9.00200 | 4326 ft | 245 kts | 297° |
| 2026-05-04 08:21 | 55.79577 | 8.97314 | 5172 ft | 249 kts | 280° |
| 2026-05-04 08:21 | 55.79789 | 8.94248 | 6047 ft | 251 kts | 275° |
| 2026-05-04 08:21 | 55.79900 | 8.91133 | 6882 ft | 254 kts | 274° |
| 2026-05-04 08:22 | 55.80000 | 8.87978 | 7671 ft | 257 kts | 274° |
| 2026-05-04 08:22 | 55.80116 | 8.84784 | 8469 ft | 261 kts | 274° |
| 2026-05-04 08:24 | 55.81598 | 8.59639 | 12484 ft | 319 kts | 277° |
| 2026-05-04 08:24 | 55.81932 | 8.55723 | 13221 ft | 322 kts | 277° |
| 2026-05-04 08:24 | 55.82264 | 8.51828 | 13895 ft | 324 kts | 276° |
| 2026-05-04 08:24 | 55.82568 | 8.47790 | 14510 ft | 326 kts | 275° |
| 2026-05-04 08:25 | 55.82837 | 8.43826 | 15102 ft | 328 kts | 275° |
| 2026-05-04 08:25 | 55.83092 | 8.39781 | 15679 ft | 331 kts | 274° |
| 2026-05-04 08:25 | 55.83341 | 8.35697 | 16263 ft | 333 kts | 274° |
| 2026-05-04 08:25 | 55.83593 | 8.31588 | 16839 ft | 335 kts | 274° |
| 2026-05-04 08:26 | 55.83852 | 8.27451 | 17413 ft | 338 kts | 275° |
| 2026-05-04 08:27 | 55.85723 | 7.97567 | 20990 ft | 357 kts | 274° |
| 2026-05-04 08:28 | 55.85994 | 7.93162 | 21445 ft | 359 kts | 275° |
| 2026-05-04 08:28 | 55.86267 | 7.88722 | 21905 ft | 362 kts | 275° |
| 2026-05-04 08:28 | 55.86538 | 7.84248 | 22351 ft | 365 kts | 275° |
| 2026-05-04 08:28 | 55.86808 | 7.79736 | 22796 ft | 368 kts | 275° |
| 2026-05-04 08:29 | 55.87077 | 7.75194 | 23232 ft | 370 kts | 275° |
| 2026-05-04 08:29 | 55.87346 | 7.70621 | 23649 ft | 373 kts | 275° |
| 2026-05-04 08:29 | 55.87617 | 7.66010 | 24031 ft | 375 kts | 275° |
| 2026-05-04 08:31 | 55.89520 | 7.33044 | 26530 ft | 391 kts | 275° |
| 2026-05-04 08:33 | 55.91416 | 6.98439 | 28810 ft | 409 kts | 275° |
| 2026-05-04 08:33 | 55.91685 | 6.93371 | 29132 ft | 412 kts | 275° |
| 2026-05-04 08:35 | 55.93534 | 6.57496 | 31749 ft | 414 kts | 275° |
| 2026-05-04 08:35 | 55.93785 | 6.52380 | 31969 ft | 414 kts | 275° |
| 2026-05-04 08:35 | 55.94275 | 6.42346 | 32008 ft | 412 kts | 275° |
| 2026-05-04 08:37 | 55.95963 | 6.06576 | 32012 ft | 415 kts | 276° |
| 2026-05-04 08:38 | 55.96430 | 5.96312 | 32012 ft | 415 kts | 276° |
| 2026-05-04 08:38 | 55.96882 | 5.86040 | 32019 ft | 415 kts | 275° |
| 2026-05-04 08:40 | 55.98629 | 5.44870 | 32021 ft | 419 kts | 276° |
| 2026-05-04 08:41 | 55.99041 | 5.34492 | 32026 ft | 419 kts | 276° |
| 2026-05-04 08:41 | 55.99450 | 5.24108 | 32022 ft | 419 kts | 276° |
| 2026-05-04 08:42 | 55.99854 | 5.13724 | 32023 ft | 419 kts | 276° |
| 2026-05-04 08:42 | 56.00247 | 5.03333 | 32025 ft | 419 kts | 276° |
| 2026-05-04 08:43 | 56.00624 | 4.92940 | 32027 ft | 419 kts | 275° |
| 2026-05-04 08:43 | 56.00999 | 4.82545 | 32023 ft | 419 kts | 275° |
| 2026-05-04 08:44 | 56.01366 | 4.72138 | 32027 ft | 420 kts | 275° |
| 2026-05-04 08:46 | 56.02746 | 4.30314 | 32036 ft | 424 kts | 276° |
| 2026-05-04 08:46 | 56.03070 | 4.19907 | 32037 ft | 420 kts | 276° |
| 2026-05-04 08:47 | 56.03385 | 4.09491 | 32037 ft | 419 kts | 275° |
| 2026-05-04 08:47 | 56.03685 | 3.99082 | 32036 ft | 419 kts | 275° |
| 2026-05-04 08:48 | 56.03978 | 3.88641 | 32032 ft | 422 kts | 276° |
| 2026-05-04 08:48 | 56.04269 | 3.78150 | 32036 ft | 423 kts | 276° |
| 2026-05-04 08:49 | 56.04555 | 3.67649 | 32041 ft | 423 kts | 276° |
| 2026-05-04 08:50 | 56.02993 | 3.36299 | 32029 ft | 430 kts | 259° |
| 2026-05-04 08:50 | 56.02239 | 3.31120 | 32023 ft | 430 kts | 259° |
| 2026-05-04 08:51 | 56.00736 | 3.20759 | 32017 ft | 431 kts | 259° |
| 2026-05-04 08:51 | 55.99208 | 3.10395 | 32028 ft | 432 kts | 259° |
| 2026-05-04 08:52 | 55.97660 | 3.00035 | 32039 ft | 432 kts | 258° |
| 2026-05-04 08:52 | 55.96106 | 2.89672 | 32039 ft | 432 kts | 258° |
| 2026-05-04 08:54 | 55.89822 | 2.48239 | 32043 ft | 433 kts | 258° |
| 2026-05-04 08:55 | 55.88218 | 2.37892 | 32047 ft | 433 kts | 258° |
| 2026-05-04 08:55 | 55.86616 | 2.27626 | 32055 ft | 433 kts | 258° |
| 2026-05-04 09:01 | 55.69477 | 1.21078 | 32048 ft | 438 kts | 257° |
| 2026-05-04 09:01 | 55.67749 | 1.10728 | 32039 ft | 438 kts | 257° |
| 2026-05-04 09:02 | 55.66027 | 1.00384 | 32052 ft | 438 kts | 257° |
| 2026-05-04 09:02 | 55.64294 | 0.90053 | 32057 ft | 438 kts | 257° |
| 2026-05-04 09:03 | 55.62543 | 0.79733 | 32061 ft | 438 kts | 257° |
| 2026-05-04 09:03 | 55.60780 | 0.69427 | 32063 ft | 438 kts | 257° |
| 2026-05-04 09:04 | 55.59022 | 0.59200 | 32067 ft | 438 kts | 256° |
| 2026-05-04 09:04 | 55.57245 | 0.48915 | 32063 ft | 437 kts | 256° |
| 2026-05-04 09:05 | 55.55465 | 0.38641 | 32065 ft | 437 kts | 256° |
| 2026-05-04 09:05 | 55.53671 | 0.28380 | 32069 ft | 437 kts | 256° |
| 2026-05-04 09:06 | 55.51876 | 0.18101 | 32066 ft | 438 kts | 256° |
| 2026-05-04 09:08 | 55.44582 | -0.23006 | 32054 ft | 440 kts | 256° |
| 2026-05-04 09:08 | 55.42722 | -0.33279 | 32060 ft | 440 kts | 255° |
| 2026-05-04 09:09 | 55.40862 | -0.43546 | 32060 ft | 440 kts | 256° |
| 2026-05-04 09:09 | 55.39000 | -0.53805 | 32062 ft | 440 kts | 255° |
| 2026-05-04 09:10 | 55.37124 | -0.64050 | 32063 ft | 440 kts | 255° |
| 2026-05-04 09:10 | 55.35235 | -0.74288 | 32067 ft | 440 kts | 255° |
| 2026-05-04 09:11 | 55.33323 | -0.84515 | 32068 ft | 440 kts | 255° |
| 2026-05-04 09:11 | 55.31431 | -0.94668 | 32070 ft | 440 kts | 255° |
| 2026-05-04 09:12 | 55.29525 | -1.04885 | 32066 ft | 440 kts | 255° |
| 2026-05-04 09:14 | 55.22080 | -1.44081 | 29049 ft | 411 kts | 255° |
| 2026-05-04 09:14 | 55.21177 | -1.48801 | 28616 ft | 407 kts | 254° |
| 2026-05-04 09:14 | 55.20279 | -1.53472 | 28189 ft | 403 kts | 254° |
| 2026-05-04 09:14 | 55.19385 | -1.58105 | 27758 ft | 400 kts | 254° |
| 2026-05-04 09:15 | 55.18497 | -1.62692 | 27342 ft | 396 kts | 254° |
| 2026-05-04 09:15 | 55.17612 | -1.67240 | 26919 ft | 393 kts | 254° |
| 2026-05-04 09:15 | 55.16731 | -1.71751 | 26515 ft | 391 kts | 254° |
| 2026-05-04 09:15 | 55.15852 | -1.76232 | 26151 ft | 387 kts | 253° |
| 2026-05-04 09:17 | 55.17442 | -2.10780 | 25435 ft | 368 kts | 302° |
| 2026-05-04 09:18 | 55.18713 | -2.14642 | 25025 ft | 365 kts | 302° |
| 2026-05-04 09:18 | 55.19973 | -2.18487 | 24632 ft | 363 kts | 302° |
| 2026-05-04 09:18 | 55.21222 | -2.22313 | 24232 ft | 361 kts | 302° |
| 2026-05-04 09:18 | 55.22446 | -2.26072 | 23860 ft | 359 kts | 301° |
| 2026-05-04 09:19 | 55.23699 | -2.29921 | 23476 ft | 358 kts | 301° |
| 2026-05-04 09:19 | 55.24910 | -2.33638 | 23036 ft | 355 kts | 301° |
| 2026-05-04 09:19 | 55.26126 | -2.37371 | 22629 ft | 351 kts | 301° |
| 2026-05-04 09:19 | 55.27331 | -2.41068 | 22196 ft | 347 kts | 301° |
| 2026-05-04 09:20 | 55.28523 | -2.44733 | 21759 ft | 345 kts | 301° |
| 2026-05-04 09:20 | 55.29704 | -2.48380 | 21333 ft | 343 kts | 301° |
| 2026-05-04 09:20 | 55.30874 | -2.52003 | 20903 ft | 340 kts | 300° |
| 2026-05-04 09:20 | 55.32038 | -2.55611 | 20544 ft | 338 kts | 300° |
| 2026-05-04 09:21 | 55.33193 | -2.59192 | 20167 ft | 336 kts | 300° |
| 2026-05-04 09:21 | 55.34342 | -2.62757 | 19784 ft | 334 kts | 300° |
| 2026-05-04 09:21 | 55.35481 | -2.66300 | 19415 ft | 332 kts | 300° |
| 2026-05-04 09:21 | 55.36614 | -2.69829 | 19063 ft | 330 kts | 300° |
| 2026-05-04 09:22 | 55.37738 | -2.73337 | 18709 ft | 329 kts | 299° |
| 2026-05-04 09:22 | 55.38856 | -2.76833 | 18347 ft | 327 kts | 299° |
| 2026-05-04 09:22 | 55.39966 | -2.80307 | 17895 ft | 325 kts | 299° |
| 2026-05-04 09:22 | 55.41071 | -2.83769 | 17466 ft | 323 kts | 299° |
| 2026-05-04 09:23 | 55.42167 | -2.87206 | 17047 ft | 321 kts | 299° |
| 2026-05-04 09:23 | 55.43256 | -2.90629 | 16649 ft | 319 kts | 299° |
| 2026-05-04 09:23 | 55.44336 | -2.94025 | 16229 ft | 317 kts | 299° |
| 2026-05-04 09:23 | 55.45538 | -2.97242 | 15973 ft | 311 kts | 311° |
| 2026-05-04 09:25 | 55.58984 | -3.06745 | 13902 ft | 295 kts | 340° |
| 2026-05-04 09:25 | 55.60937 | -3.07830 | 13562 ft | 293 kts | 340° |
| 2026-05-04 09:26 | 55.62877 | -3.08910 | 13210 ft | 291 kts | 340° |
| 2026-05-04 09:26 | 55.64808 | -3.09984 | 12860 ft | 290 kts | 340° |
| 2026-05-04 09:26 | 55.66729 | -3.11050 | 12523 ft | 289 kts | 340° |
| 2026-05-04 09:26 | 55.68622 | -3.12101 | 12377 ft | 280 kts | 340° |
| 2026-05-04 09:27 | 55.70453 | -3.13119 | 12245 ft | 272 kts | 340° |
| 2026-05-04 09:27 | 55.72241 | -3.14064 | 12071 ft | 266 kts | 346° |
| 2026-05-04 09:27 | 55.74089 | -3.14155 | 11801 ft | 269 kts | 7° |
| 2026-05-04 09:27 | 55.75866 | -3.13071 | 11457 ft | 274 kts | 23° |
| 2026-05-04 09:28 | 55.77559 | -3.11558 | 11058 ft | 270 kts | 24° |
| 2026-05-04 09:28 | 55.79218 | -3.10058 | 10656 ft | 265 kts | 24° |
| 2026-05-04 09:28 | 55.80844 | -3.08588 | 10265 ft | 260 kts | 24° |
| 2026-05-04 09:28 | 55.82446 | -3.07142 | 9872 ft | 257 kts | 24° |
| 2026-05-04 09:29 | 55.84032 | -3.05714 | 9443 ft | 254 kts | 23° |
| 2026-05-04 09:29 | 55.85641 | -3.04627 | 9023 ft | 249 kts | 9° |
| 2026-05-04 09:29 | 55.87336 | -3.04075 | 8603 ft | 247 kts | 6° |
| 2026-05-04 09:29 | 55.89019 | -3.03538 | 8189 ft | 245 kts | 7° |
| 2026-05-04 09:30 | 55.90707 | -3.02998 | 7784 ft | 249 kts | 7° |
| 2026-05-04 09:30 | 55.92428 | -3.02445 | 7367 ft | 254 kts | 7° |
| 2026-05-04 09:30 | 55.94201 | -3.01914 | 6865 ft | 262 kts | 2° |
| 2026-05-04 09:30 | 55.96025 | -3.02043 | 6367 ft | 265 kts | 349° |
| 2026-05-04 09:31 | 55.97802 | -3.02456 | 6144 ft | 249 kts | 349° |
| 2026-05-04 09:31 | 55.99491 | -3.02845 | 5717 ft | 242 kts | 349° |
| 2026-05-04 09:31 | 56.01148 | -3.03295 | 5200 ft | 239 kts | 341° |
| 2026-05-04 09:31 | 56.02464 | -3.04881 | 4706 ft | 228 kts | 301° |
| 2026-05-04 09:32 | 56.03011 | -3.07477 | 4178 ft | 223 kts | 283° |
| 2026-05-04 09:32 | 56.03316 | -3.10184 | 3659 ft | 221 kts | 271° |
| 2026-05-04 09:34 | 55.99154 | -3.24933 | 1551 ft | 160 kts | 241° |
| 2026-05-04 09:34 | 55.98582 | -3.26633 | 1331 ft | 159 kts | 240° |
| 2026-05-04 09:34 | 55.98029 | -3.28272 | 1104 ft | 147 kts | 240° |
| 2026-05-04 09:34 | 55.97515 | -3.29797 | 906 ft | 139 kts | 240° |
| 2026-05-04 09:35 | 55.97030 | -3.31232 | 725 ft | 133 kts | 240° |
| 2026-05-04 09:35 | 55.96563 | -3.32616 | 555 ft | 129 kts | 241° |
| 2026-05-04 09:35 | 55.96104 | -3.33974 | 388 ft | 125 kts | 241° |
| 2026-05-04 09:35 | 55.95645 | -3.35333 | 217 ft | 126 kts | 241° |
| 2026-05-04 09:37 | 55.94651 | -3.38011 | 114 ft | 0 kts | 152° |
| 2026-05-04 09:38 | 55.94631 | -3.37992 | 112 ft | 8 kts | 152° |
| 2026-05-04 09:38 | 55.94590 | -3.37908 | 115 ft | 10 kts | 91° |
| 2026-05-04 09:39 | 55.94624 | -3.37784 | 114 ft | 12 kts | 60° |
| 2026-05-04 09:39 | 55.94672 | -3.37647 | 112 ft | 14 kts | 57° |
| 2026-05-04 09:39 | 55.94726 | -3.37487 | 115 ft | 16 kts | 59° |
| 2026-05-04 09:39 | 55.94786 | -3.37304 | 113 ft | 18 kts | 59° |
| 2026-05-04 09:40 | 55.94852 | -3.37111 | 114 ft | 18 kts | 58° |
| 2026-05-04 09:40 | 55.94918 | -3.36917 | 113 ft | 16 kts | 59° |
| 2026-05-04 09:40 | 55.94902 | -3.36800 | 115 ft | 4 kts | 124° |
| 2026-05-04 09:40 | 55.94899 | -3.36756 | 116 ft | 4 kts | 82° |
| 2026-05-04 09:41 | 55.94910 | -3.36707 | 115 ft | 5 kts | 60° |
| 2026-05-04 09:42 | 55.94860 | -3.36612 | 114 ft | 0 kts | 145° |